sensor_id;sensor_type;location;lat;lon;timestamp;P1;durP1;ratioP1;P2;durP2;ratioP2
54831;SDS011;40730;53.068;6.572;2024-01-11T00:00:44;49.30;;;23.30;;
54831;SDS011;40730;53.068;6.572;2024-01-11T00:03:10;53.30;;;24.38;;
54831;SDS011;40730;53.068;6.572;2024-01-11T00:05:35;58.13;;;26.60;;
54831;SDS011;40730;53.068;6.572;2024-01-11T00:08:01;53.90;;;25.42;;
54831;SDS011;40730;53.068;6.572;2024-01-11T00:10:27;56.37;;;24.93;;
54831;SDS011;40730;53.068;6.572;2024-01-11T00:12:53;50.10;;;23.30;;
54831;SDS011;40730;53.068;6.572;2024-01-11T00:15:19;55.60;;;24.65;;
54831;SDS011;40730;53.068;6.572;2024-01-11T00:17:44;51.15;;;22.98;;
54831;SDS011;40730;53.068;6.572;2024-01-11T00:20:10;54.33;;;24.77;;
54831;SDS011;40730;53.068;6.572;2024-01-11T00:22:36;52.42;;;22.40;;
54831;SDS011;40730;53.068;6.572;2024-01-11T00:25:02;51.42;;;23.67;;
54831;SDS011;40730;53.068;6.572;2024-01-11T00:27:28;54.13;;;24.15;;
54831;SDS011;40730;53.068;6.572;2024-01-11T00:29:54;52.25;;;24.52;;
54831;SDS011;40730;53.068;6.572;2024-01-11T00:32:20;50.17;;;23.70;;
54831;SDS011;40730;53.068;6.572;2024-01-11T00:34:48;53.15;;;24.83;;
54831;SDS011;40730;53.068;6.572;2024-01-11T00:37:14;62.03;;;24.50;;
54831;SDS011;40730;53.068;6.572;2024-01-11T00:39:39;55.47;;;23.75;;
54831;SDS011;40730;53.068;6.572;2024-01-11T00:42:05;55.72;;;22.70;;
54831;SDS011;40730;53.068;6.572;2024-01-11T00:44:30;55.85;;;24.17;;
54831;SDS011;40730;53.068;6.572;2024-01-11T00:46:56;50.80;;;24.60;;
54831;SDS011;40730;53.068;6.572;2024-01-11T00:49:22;54.10;;;24.13;;
54831;SDS011;40730;53.068;6.572;2024-01-11T00:51:47;56.20;;;23.58;;
54831;SDS011;40730;53.068;6.572;2024-01-11T00:54:13;54.45;;;23.00;;
54831;SDS011;40730;53.068;6.572;2024-01-11T00:56:39;57.40;;;23.77;;
54831;SDS011;40730;53.068;6.572;2024-01-11T00:59:04;63.65;;;26.20;;
54831;SDS011;40730;53.068;6.572;2024-01-11T01:01:30;58.90;;;25.45;;
54831;SDS011;40730;53.068;6.572;2024-01-11T01:03:55;62.78;;;25.63;;
54831;SDS011;40730;53.068;6.572;2024-01-11T01:06:21;57.97;;;24.20;;
54831;SDS011;40730;53.068;6.572;2024-01-11T01:08:47;66.73;;;26.37;;
54831;SDS011;40730;53.068;6.572;2024-01-11T01:11:12;67.93;;;27.57;;
54831;SDS011;40730;53.068;6.572;2024-01-11T01:13:38;59.20;;;24.33;;
54831;SDS011;40730;53.068;6.572;2024-01-11T01:16:04;62.45;;;26.67;;
54831;SDS011;40730;53.068;6.572;2024-01-11T01:18:29;61.70;;;25.42;;
54831;SDS011;40730;53.068;6.572;2024-01-11T01:20:55;65.75;;;26.92;;
54831;SDS011;40730;53.068;6.572;2024-01-11T01:23:21;58.28;;;24.75;;
54831;SDS011;40730;53.068;6.572;2024-01-11T01:25:46;60.60;;;25.52;;
54831;SDS011;40730;53.068;6.572;2024-01-11T01:28:12;63.53;;;26.42;;
54831;SDS011;40730;53.068;6.572;2024-01-11T01:30:37;71.28;;;26.98;;
54831;SDS011;40730;53.068;6.572;2024-01-11T01:33:03;63.22;;;27.83;;
54831;SDS011;40730;53.068;6.572;2024-01-11T01:35:29;61.90;;;26.60;;
54831;SDS011;40730;53.068;6.572;2024-01-11T01:37:55;65.37;;;28.53;;
54831;SDS011;40730;53.068;6.572;2024-01-11T01:40:20;71.75;;;28.67;;
54831;SDS011;40730;53.068;6.572;2024-01-11T01:42:46;65.78;;;25.75;;
54831;SDS011;40730;53.068;6.572;2024-01-11T01:45:14;71.07;;;28.33;;
54831;SDS011;40730;53.068;6.572;2024-01-11T01:47:40;68.63;;;28.83;;
54831;SDS011;40730;53.068;6.572;2024-01-11T01:50:07;66.00;;;27.70;;
54831;SDS011;40730;53.068;6.572;2024-01-11T01:52:34;70.32;;;29.55;;
54831;SDS011;40730;53.068;6.572;2024-01-11T01:55:02;68.97;;;27.77;;
54831;SDS011;40730;53.068;6.572;2024-01-11T01:57:30;68.95;;;26.10;;
54831;SDS011;40730;53.068;6.572;2024-01-11T01:59:57;70.32;;;27.88;;
54831;SDS011;40730;53.068;6.572;2024-01-11T02:02:23;73.23;;;28.70;;
54831;SDS011;40730;53.068;6.572;2024-01-11T02:04:50;63.65;;;25.42;;
54831;SDS011;40730;53.068;6.572;2024-01-11T02:07:16;64.90;;;27.23;;
54831;SDS011;40730;53.068;6.572;2024-01-11T02:09:43;62.73;;;26.00;;
54831;SDS011;40730;53.068;6.572;2024-01-11T02:12:09;70.00;;;27.50;;
54831;SDS011;40730;53.068;6.572;2024-01-11T02:14:38;77.43;;;28.70;;
54831;SDS011;40730;53.068;6.572;2024-01-11T02:17:04;72.03;;;27.17;;
54831;SDS011;40730;53.068;6.572;2024-01-11T02:19:30;64.60;;;25.63;;
54831;SDS011;40730;53.068;6.572;2024-01-11T02:21:56;69.43;;;26.33;;
54831;SDS011;40730;53.068;6.572;2024-01-11T02:24:27;74.55;;;29.38;;
54831;SDS011;40730;53.068;6.572;2024-01-11T02:27:00;66.27;;;25.37;;
54831;SDS011;40730;53.068;6.572;2024-01-11T02:29:27;69.50;;;27.77;;
54831;SDS011;40730;53.068;6.572;2024-01-11T02:31:57;66.07;;;26.27;;
54831;SDS011;40730;53.068;6.572;2024-01-11T02:34:26;72.82;;;27.45;;
54831;SDS011;40730;53.068;6.572;2024-01-11T02:36:52;68.03;;;26.83;;
54831;SDS011;40730;53.068;6.572;2024-01-11T02:39:19;75.23;;;28.00;;
54831;SDS011;40730;53.068;6.572;2024-01-11T02:41:47;76.50;;;28.30;;
54831;SDS011;40730;53.068;6.572;2024-01-11T02:44:15;75.90;;;27.13;;
54831;SDS011;40730;53.068;6.572;2024-01-11T02:46:40;75.85;;;27.25;;
54831;SDS011;40730;53.068;6.572;2024-01-11T02:49:06;84.33;;;30.47;;
54831;SDS011;40730;53.068;6.572;2024-01-11T02:51:31;76.35;;;27.70;;
54831;SDS011;40730;53.068;6.572;2024-01-11T02:53:57;72.90;;;25.75;;
54831;SDS011;40730;53.068;6.572;2024-01-11T02:56:23;71.90;;;26.77;;
54831;SDS011;40730;53.068;6.572;2024-01-11T02:58:49;72.97;;;29.83;;
54831;SDS011;40730;53.068;6.572;2024-01-11T03:01:14;79.23;;;30.27;;
54831;SDS011;40730;53.068;6.572;2024-01-11T03:03:40;79.33;;;29.70;;
54831;SDS011;40730;53.068;6.572;2024-01-11T03:06:06;84.07;;;30.73;;
54831;SDS011;40730;53.068;6.572;2024-01-11T03:08:32;75.80;;;27.93;;
54831;SDS011;40730;53.068;6.572;2024-01-11T03:10:57;79.17;;;28.13;;
54831;SDS011;40730;53.068;6.572;2024-01-11T03:13:23;82.63;;;29.80;;
54831;SDS011;40730;53.068;6.572;2024-01-11T03:15:49;77.63;;;26.50;;
54831;SDS011;40730;53.068;6.572;2024-01-11T03:18:14;79.70;;;28.03;;
54831;SDS011;40730;53.068;6.572;2024-01-11T03:20:40;84.70;;;31.60;;
54831;SDS011;40730;53.068;6.572;2024-01-11T03:23:06;75.93;;;28.13;;
54831;SDS011;40730;53.068;6.572;2024-01-11T03:25:31;75.53;;;28.67;;
54831;SDS011;40730;53.068;6.572;2024-01-11T03:28:00;79.47;;;29.30;;
54831;SDS011;40730;53.068;6.572;2024-01-11T03:30:25;85.43;;;30.60;;
54831;SDS011;40730;53.068;6.572;2024-01-11T03:32:51;85.07;;;29.77;;
54831;SDS011;40730;53.068;6.572;2024-01-11T03:35:18;80.07;;;30.83;;
54831;SDS011;40730;53.068;6.572;2024-01-11T03:37:44;83.57;;;32.00;;
54831;SDS011;40730;53.068;6.572;2024-01-11T03:40:10;82.07;;;29.20;;
54831;SDS011;40730;53.068;6.572;2024-01-11T03:42:35;87.18;;;31.77;;
54831;SDS011;40730;53.068;6.572;2024-01-11T03:45:01;82.13;;;30.20;;
54831;SDS011;40730;53.068;6.572;2024-01-11T03:47:28;75.38;;;26.83;;
54831;SDS011;40730;53.068;6.572;2024-01-11T03:49:53;75.22;;;28.13;;
54831;SDS011;40730;53.068;6.572;2024-01-11T03:52:19;79.67;;;28.47;;
54831;SDS011;40730;53.068;6.572;2024-01-11T03:54:45;76.57;;;30.00;;
54831;SDS011;40730;53.068;6.572;2024-01-11T03:57:11;86.77;;;32.60;;
54831;SDS011;40730;53.068;6.572;2024-01-11T03:59:36;79.07;;;29.63;;
54831;SDS011;40730;53.068;6.572;2024-01-11T04:02:02;74.13;;;28.43;;
54831;SDS011;40730;53.068;6.572;2024-01-11T04:04:27;76.47;;;27.20;;
54831;SDS011;40730;53.068;6.572;2024-01-11T04:06:53;75.43;;;28.80;;
54831;SDS011;40730;53.068;6.572;2024-01-11T04:09:19;84.63;;;30.90;;
54831;SDS011;40730;53.068;6.572;2024-01-11T04:11:45;77.63;;;29.27;;
54831;SDS011;40730;53.068;6.572;2024-01-11T04:14:11;74.77;;;28.50;;
54831;SDS011;40730;53.068;6.572;2024-01-11T04:16:41;78.73;;;28.90;;
54831;SDS011;40730;53.068;6.572;2024-01-11T04:19:07;67.23;;;25.93;;
54831;SDS011;40730;53.068;6.572;2024-01-11T04:21:33;73.40;;;27.80;;
54831;SDS011;40730;53.068;6.572;2024-01-11T04:23:59;70.93;;;29.00;;
54831;SDS011;40730;53.068;6.572;2024-01-11T04:26:25;71.40;;;27.87;;
54831;SDS011;40730;53.068;6.572;2024-01-11T04:28:51;81.00;;;29.53;;
54831;SDS011;40730;53.068;6.572;2024-01-11T04:31:17;71.03;;;24.73;;
54831;SDS011;40730;53.068;6.572;2024-01-11T04:33:43;73.33;;;28.90;;
54831;SDS011;40730;53.068;6.572;2024-01-11T04:36:09;72.03;;;28.07;;
54831;SDS011;40730;53.068;6.572;2024-01-11T04:38:35;73.83;;;28.23;;
54831;SDS011;40730;53.068;6.572;2024-01-11T04:41:11;80.20;;;29.23;;
54831;SDS011;40730;53.068;6.572;2024-01-11T04:43:41;75.83;;;30.80;;
54831;SDS011;40730;53.068;6.572;2024-01-11T04:48:43;73.60;;;25.73;;
54831;SDS011;40730;53.068;6.572;2024-01-11T04:51:09;85.60;;;30.90;;
54831;SDS011;40730;53.068;6.572;2024-01-11T04:53:38;70.93;;;27.50;;
54831;SDS011;40730;53.068;6.572;2024-01-11T04:56:08;81.33;;;28.47;;
54831;SDS011;40730;53.068;6.572;2024-01-11T04:58:35;81.68;;;31.25;;
54831;SDS011;40730;53.068;6.572;2024-01-11T05:01:03;73.63;;;28.27;;
54831;SDS011;40730;53.068;6.572;2024-01-11T05:03:29;96.45;;;33.75;;
54831;SDS011;40730;53.068;6.572;2024-01-11T05:05:55;90.40;;;33.37;;
54831;SDS011;40730;53.068;6.572;2024-01-11T05:08:21;92.53;;;33.90;;
54831;SDS011;40730;53.068;6.572;2024-01-11T05:10:47;95.93;;;33.37;;
54831;SDS011;40730;53.068;6.572;2024-01-11T05:13:12;91.13;;;33.28;;
54831;SDS011;40730;53.068;6.572;2024-01-11T05:15:38;93.47;;;34.00;;
54831;SDS011;40730;53.068;6.572;2024-01-11T05:18:03;95.13;;;34.28;;
54831;SDS011;40730;53.068;6.572;2024-01-11T05:20:29;95.25;;;33.00;;
54831;SDS011;40730;53.068;6.572;2024-01-11T05:22:54;94.30;;;34.53;;
54831;SDS011;40730;53.068;6.572;2024-01-11T05:25:20;94.47;;;33.33;;
54831;SDS011;40730;53.068;6.572;2024-01-11T05:27:46;92.28;;;31.17;;
54831;SDS011;40730;53.068;6.572;2024-01-11T05:30:11;98.35;;;34.13;;
54831;SDS011;40730;53.068;6.572;2024-01-11T05:32:37;89.63;;;33.17;;
54831;SDS011;40730;53.068;6.572;2024-01-11T05:35:03;92.22;;;32.80;;
54831;SDS011;40730;53.068;6.572;2024-01-11T05:37:29;90.53;;;34.63;;
54831;SDS011;40730;53.068;6.572;2024-01-11T05:39:54;95.72;;;34.72;;
54831;SDS011;40730;53.068;6.572;2024-01-11T05:42:22;89.95;;;31.67;;
54831;SDS011;40730;53.068;6.572;2024-01-11T05:44:48;95.40;;;34.85;;
54831;SDS011;40730;53.068;6.572;2024-01-11T05:47:14;88.18;;;32.58;;
54831;SDS011;40730;53.068;6.572;2024-01-11T05:49:40;93.40;;;34.38;;
54831;SDS011;40730;53.068;6.572;2024-01-11T05:52:05;87.93;;;34.63;;
54831;SDS011;40730;53.068;6.572;2024-01-11T05:54:31;92.10;;;34.20;;
54831;SDS011;40730;53.068;6.572;2024-01-11T05:56:56;100.00;;;36.63;;
54831;SDS011;40730;53.068;6.572;2024-01-11T05:59:24;97.32;;;35.50;;
54831;SDS011;40730;53.068;6.572;2024-01-11T06:01:49;97.03;;;34.53;;
54831;SDS011;40730;53.068;6.572;2024-01-11T06:04:15;93.60;;;35.72;;
54831;SDS011;40730;53.068;6.572;2024-01-11T06:06:41;95.97;;;35.70;;
54831;SDS011;40730;53.068;6.572;2024-01-11T06:09:07;91.72;;;33.30;;
54831;SDS011;40730;53.068;6.572;2024-01-11T06:11:33;89.70;;;34.67;;
54831;SDS011;40730;53.068;6.572;2024-01-11T06:13:59;87.57;;;33.22;;
54831;SDS011;40730;53.068;6.572;2024-01-11T06:16:25;91.28;;;33.42;;
54831;SDS011;40730;53.068;6.572;2024-01-11T06:18:51;95.80;;;34.75;;
54831;SDS011;40730;53.068;6.572;2024-01-11T06:21:16;93.65;;;34.00;;
54831;SDS011;40730;53.068;6.572;2024-01-11T06:23:45;87.97;;;33.13;;
54831;SDS011;40730;53.068;6.572;2024-01-11T06:26:10;87.72;;;33.55;;
54831;SDS011;40730;53.068;6.572;2024-01-11T06:28:36;93.35;;;34.63;;
54831;SDS011;40730;53.068;6.572;2024-01-11T06:31:02;92.20;;;35.70;;
54831;SDS011;40730;53.068;6.572;2024-01-11T06:33:28;99.10;;;35.70;;
54831;SDS011;40730;53.068;6.572;2024-01-11T06:35:54;87.07;;;31.67;;
54831;SDS011;40730;53.068;6.572;2024-01-11T06:38:20;83.15;;;33.53;;
54831;SDS011;40730;53.068;6.572;2024-01-11T06:40:47;88.38;;;34.72;;
54831;SDS011;40730;53.068;6.572;2024-01-11T06:43:13;93.35;;;33.88;;
54831;SDS011;40730;53.068;6.572;2024-01-11T06:45:39;96.75;;;36.05;;
54831;SDS011;40730;53.068;6.572;2024-01-11T06:48:07;93.80;;;35.92;;
54831;SDS011;40730;53.068;6.572;2024-01-11T06:50:33;94.60;;;33.58;;
54831;SDS011;40730;53.068;6.572;2024-01-11T06:52:59;95.72;;;36.03;;
54831;SDS011;40730;53.068;6.572;2024-01-11T06:55:26;84.38;;;31.08;;
54831;SDS011;40730;53.068;6.572;2024-01-11T06:57:51;92.47;;;34.58;;
54831;SDS011;40730;53.068;6.572;2024-01-11T07:00:17;99.68;;;36.22;;
54831;SDS011;40730;53.068;6.572;2024-01-11T07:02:43;90.82;;;31.75;;
54831;SDS011;40730;53.068;6.572;2024-01-11T07:05:08;92.47;;;31.08;;
54831;SDS011;40730;53.068;6.572;2024-01-11T07:07:34;93.03;;;34.13;;
54831;SDS011;40730;53.068;6.572;2024-01-11T07:09:59;90.18;;;33.55;;
54831;SDS011;40730;53.068;6.572;2024-01-11T07:12:25;85.13;;;30.40;;
54831;SDS011;40730;53.068;6.572;2024-01-11T07:14:51;90.30;;;35.35;;
54831;SDS011;40730;53.068;6.572;2024-01-11T07:17:16;96.63;;;34.13;;
54831;SDS011;40730;53.068;6.572;2024-01-11T07:19:42;93.47;;;34.08;;
54831;SDS011;40730;53.068;6.572;2024-01-11T07:22:08;92.72;;;31.90;;
54831;SDS011;40730;53.068;6.572;2024-01-11T07:24:34;93.72;;;33.25;;
54831;SDS011;40730;53.068;6.572;2024-01-11T07:27:08;95.97;;;32.50;;
54831;SDS011;40730;53.068;6.572;2024-01-11T07:29:34;92.65;;;32.70;;
54831;SDS011;40730;53.068;6.572;2024-01-11T07:32:00;95.93;;;34.60;;
54831;SDS011;40730;53.068;6.572;2024-01-11T07:34:26;104.03;;;34.95;;
54831;SDS011;40730;53.068;6.572;2024-01-11T07:36:52;103.15;;;34.13;;
54831;SDS011;40730;53.068;6.572;2024-01-11T07:39:18;101.72;;;36.95;;
54831;SDS011;40730;53.068;6.572;2024-01-11T07:41:44;100.70;;;37.13;;
54831;SDS011;40730;53.068;6.572;2024-01-11T07:44:10;111.65;;;37.05;;
54831;SDS011;40730;53.068;6.572;2024-01-11T07:46:36;96.28;;;35.50;;
54831;SDS011;40730;53.068;6.572;2024-01-11T07:49:04;91.97;;;36.90;;
54831;SDS011;40730;53.068;6.572;2024-01-11T07:51:30;98.38;;;36.15;;
54831;SDS011;40730;53.068;6.572;2024-01-11T07:53:56;100.10;;;36.45;;
54831;SDS011;40730;53.068;6.572;2024-01-11T07:56:22;97.57;;;34.05;;
54831;SDS011;40730;53.068;6.572;2024-01-11T07:58:47;101.20;;;34.33;;
54831;SDS011;40730;53.068;6.572;2024-01-11T08:01:13;103.88;;;36.67;;
54831;SDS011;40730;53.068;6.572;2024-01-11T08:03:41;87.15;;;31.30;;
54831;SDS011;40730;53.068;6.572;2024-01-11T08:06:06;93.63;;;33.80;;
54831;SDS011;40730;53.068;6.572;2024-01-11T08:08:33;102.25;;;35.13;;
54831;SDS011;40730;53.068;6.572;2024-01-11T08:10:59;105.07;;;35.92;;
54831;SDS011;40730;53.068;6.572;2024-01-11T08:13:24;95.40;;;35.28;;
54831;SDS011;40730;53.068;6.572;2024-01-11T08:15:50;101.72;;;35.42;;
54831;SDS011;40730;53.068;6.572;2024-01-11T08:18:18;97.05;;;34.80;;
54831;SDS011;40730;53.068;6.572;2024-01-11T08:20:44;88.70;;;31.58;;
54831;SDS011;40730;53.068;6.572;2024-01-11T08:23:09;100.65;;;36.72;;
54831;SDS011;40730;53.068;6.572;2024-01-11T08:25:35;100.30;;;34.88;;
54831;SDS011;40730;53.068;6.572;2024-01-11T08:28:01;104.30;;;37.17;;
54831;SDS011;40730;53.068;6.572;2024-01-11T08:30:28;105.70;;;36.88;;
54831;SDS011;40730;53.068;6.572;2024-01-11T08:32:54;95.90;;;34.00;;
54831;SDS011;40730;53.068;6.572;2024-01-11T08:35:20;93.53;;;34.13;;
54831;SDS011;40730;53.068;6.572;2024-01-11T08:37:46;91.47;;;34.72;;
54831;SDS011;40730;53.068;6.572;2024-01-11T08:40:12;93.55;;;32.70;;
54831;SDS011;40730;53.068;6.572;2024-01-11T08:42:38;96.28;;;33.65;;
54831;SDS011;40730;53.068;6.572;2024-01-11T08:45:06;102.28;;;36.30;;
54831;SDS011;40730;53.068;6.572;2024-01-11T08:47:35;91.75;;;33.80;;
54831;SDS011;40730;53.068;6.572;2024-01-11T08:50:03;99.47;;;36.00;;
54831;SDS011;40730;53.068;6.572;2024-01-11T08:52:31;101.05;;;35.63;;
54831;SDS011;40730;53.068;6.572;2024-01-11T08:54:58;89.55;;;34.13;;
54831;SDS011;40730;53.068;6.572;2024-01-11T08:57:23;99.82;;;34.95;;
54831;SDS011;40730;53.068;6.572;2024-01-11T08:59:49;94.28;;;35.35;;
54831;SDS011;40730;53.068;6.572;2024-01-11T09:02:14;95.15;;;36.78;;
54831;SDS011;40730;53.068;6.572;2024-01-11T09:04:40;98.10;;;35.50;;
54831;SDS011;40730;53.068;6.572;2024-01-11T09:07:05;91.35;;;32.53;;
54831;SDS011;40730;53.068;6.572;2024-01-11T09:09:31;78.43;;;30.95;;
54831;SDS011;40730;53.068;6.572;2024-01-11T09:11:57;84.10;;;34.17;;
54831;SDS011;40730;53.068;6.572;2024-01-11T09:14:22;81.68;;;31.90;;
54831;SDS011;40730;53.068;6.572;2024-01-11T09:16:48;84.30;;;33.33;;
54831;SDS011;40730;53.068;6.572;2024-01-11T09:19:14;80.55;;;31.67;;
54831;SDS011;40730;53.068;6.572;2024-01-11T09:21:40;76.95;;;32.47;;
54831;SDS011;40730;53.068;6.572;2024-01-11T09:24:07;79.97;;;31.92;;
54831;SDS011;40730;53.068;6.572;2024-01-11T09:26:33;75.55;;;30.85;;
54831;SDS011;40730;53.068;6.572;2024-01-11T09:28:58;79.65;;;30.65;;
54831;SDS011;40730;53.068;6.572;2024-01-11T09:31:24;83.80;;;32.38;;
54831;SDS011;40730;53.068;6.572;2024-01-11T09:33:49;80.93;;;30.55;;
54831;SDS011;40730;53.068;6.572;2024-01-11T09:36:15;73.97;;;31.38;;
54831;SDS011;40730;53.068;6.572;2024-01-11T09:38:41;72.78;;;29.75;;
54831;SDS011;40730;53.068;6.572;2024-01-11T09:41:07;79.00;;;32.20;;
54831;SDS011;40730;53.068;6.572;2024-01-11T09:43:34;76.18;;;29.08;;
54831;SDS011;40730;53.068;6.572;2024-01-11T09:46:04;67.88;;;26.95;;
54831;SDS011;40730;53.068;6.572;2024-01-11T09:48:40;64.45;;;28.98;;
54831;SDS011;40730;53.068;6.572;2024-01-11T09:51:09;62.97;;;26.63;;
54831;SDS011;40730;53.068;6.572;2024-01-11T09:53:36;65.72;;;28.33;;
54831;SDS011;40730;53.068;6.572;2024-01-11T09:56:05;62.38;;;27.30;;
54831;SDS011;40730;53.068;6.572;2024-01-11T09:58:34;67.18;;;27.65;;
54831;SDS011;40730;53.068;6.572;2024-01-11T10:01:05;62.90;;;27.52;;
54831;SDS011;40730;53.068;6.572;2024-01-11T10:03:35;66.00;;;26.38;;
54831;SDS011;40730;53.068;6.572;2024-01-11T10:06:01;61.08;;;25.58;;
54831;SDS011;40730;53.068;6.572;2024-01-11T10:08:28;57.00;;;24.98;;
54831;SDS011;40730;53.068;6.572;2024-01-11T10:10:55;55.38;;;24.45;;
54831;SDS011;40730;53.068;6.572;2024-01-11T10:13:27;53.97;;;25.77;;
54831;SDS011;40730;53.068;6.572;2024-01-11T10:16:10;56.83;;;25.52;;
54831;SDS011;40730;53.068;6.572;2024-01-11T10:18:40;54.38;;;24.00;;
54831;SDS011;40730;53.068;6.572;2024-01-11T10:21:06;52.42;;;25.83;;
54831;SDS011;40730;53.068;6.572;2024-01-11T10:23:35;50.83;;;25.20;;
54831;SDS011;40730;53.068;6.572;2024-01-11T10:26:01;55.35;;;25.33;;
54831;SDS011;40730;53.068;6.572;2024-01-11T10:28:27;51.60;;;25.50;;
54831;SDS011;40730;53.068;6.572;2024-01-11T10:30:53;51.17;;;26.15;;
54831;SDS011;40730;53.068;6.572;2024-01-11T10:33:19;56.90;;;25.80;;
54831;SDS011;40730;53.068;6.572;2024-01-11T10:35:46;49.35;;;24.25;;
54831;SDS011;40730;53.068;6.572;2024-01-11T10:38:14;54.70;;;24.70;;
54831;SDS011;40730;53.068;6.572;2024-01-11T10:40:40;49.17;;;23.73;;
54831;SDS011;40730;53.068;6.572;2024-01-11T10:43:08;52.55;;;24.95;;
54831;SDS011;40730;53.068;6.572;2024-01-11T10:45:36;48.28;;;24.30;;
54831;SDS011;40730;53.068;6.572;2024-01-11T10:48:08;51.42;;;24.20;;
54831;SDS011;40730;53.068;6.572;2024-01-11T10:50:45;50.72;;;24.20;;
54831;SDS011;40730;53.068;6.572;2024-01-11T10:55:52;46.72;;;23.05;;
54831;SDS011;40730;53.068;6.572;2024-01-11T10:58:20;49.10;;;24.00;;
54831;SDS011;40730;53.068;6.572;2024-01-11T11:00:48;49.22;;;23.98;;
54831;SDS011;40730;53.068;6.572;2024-01-11T11:03:16;48.28;;;23.40;;
54831;SDS011;40730;53.068;6.572;2024-01-11T11:05:44;48.72;;;23.90;;
54831;SDS011;40730;53.068;6.572;2024-01-11T11:08:12;51.88;;;24.10;;
54831;SDS011;40730;53.068;6.572;2024-01-11T11:10:39;48.42;;;22.88;;
54831;SDS011;40730;53.068;6.572;2024-01-11T11:13:06;50.22;;;23.77;;
54831;SDS011;40730;53.068;6.572;2024-01-11T11:15:35;46.55;;;22.13;;
54831;SDS011;40730;53.068;6.572;2024-01-11T11:18:02;46.92;;;23.42;;
54831;SDS011;40730;53.068;6.572;2024-01-11T11:20:30;49.13;;;23.90;;
54831;SDS011;40730;53.068;6.572;2024-01-11T11:23:04;43.85;;;22.50;;
54831;SDS011;40730;53.068;6.572;2024-01-11T11:25:30;46.53;;;23.33;;
54831;SDS011;40730;53.068;6.572;2024-01-11T11:27:56;46.33;;;23.58;;
54831;SDS011;40730;53.068;6.572;2024-01-11T11:30:22;47.70;;;23.70;;
54831;SDS011;40730;53.068;6.572;2024-01-11T11:32:48;46.15;;;22.15;;
54831;SDS011;40730;53.068;6.572;2024-01-11T11:35:14;46.67;;;24.00;;
54831;SDS011;40730;53.068;6.572;2024-01-11T11:37:39;45.67;;;22.67;;
54831;SDS011;40730;53.068;6.572;2024-01-11T11:40:05;44.78;;;23.33;;
54831;SDS011;40730;53.068;6.572;2024-01-11T11:42:37;43.10;;;21.33;;
54831;SDS011;40730;53.068;6.572;2024-01-11T11:45:05;41.85;;;21.95;;
54831;SDS011;40730;53.068;6.572;2024-01-11T11:47:36;42.00;;;22.05;;
54831;SDS011;40730;53.068;6.572;2024-01-11T11:50:07;42.50;;;21.77;;
54831;SDS011;40730;53.068;6.572;2024-01-11T11:52:37;41.65;;;22.52;;
54831;SDS011;40730;53.068;6.572;2024-01-11T11:55:05;39.65;;;20.65;;
54831;SDS011;40730;53.068;6.572;2024-01-11T11:57:33;39.22;;;19.88;;
54831;SDS011;40730;53.068;6.572;2024-01-11T11:59:59;40.95;;;20.70;;
54831;SDS011;40730;53.068;6.572;2024-01-11T12:02:27;40.90;;;19.88;;
54831;SDS011;40730;53.068;6.572;2024-01-11T12:04:53;40.25;;;20.30;;
54831;SDS011;40730;53.068;6.572;2024-01-11T12:07:20;39.90;;;21.35;;
54831;SDS011;40730;53.068;6.572;2024-01-11T12:09:46;40.22;;;20.50;;
54831;SDS011;40730;53.068;6.572;2024-01-11T12:12:12;36.78;;;19.58;;
54831;SDS011;40730;53.068;6.572;2024-01-11T12:14:38;38.78;;;21.30;;
54831;SDS011;40730;53.068;6.572;2024-01-11T12:17:05;40.58;;;20.20;;
54831;SDS011;40730;53.068;6.572;2024-01-11T12:19:31;43.75;;;21.75;;
54831;SDS011;40730;53.068;6.572;2024-01-11T12:21:57;50.00;;;22.63;;
54831;SDS011;40730;53.068;6.572;2024-01-11T12:24:23;43.70;;;22.98;;
54831;SDS011;40730;53.068;6.572;2024-01-11T12:26:49;44.20;;;22.00;;
54831;SDS011;40730;53.068;6.572;2024-01-11T12:29:22;48.22;;;22.50;;
54831;SDS011;40730;53.068;6.572;2024-01-11T12:31:48;44.65;;;21.40;;
54831;SDS011;40730;53.068;6.572;2024-01-11T12:34:17;45.70;;;21.67;;
54831;SDS011;40730;53.068;6.572;2024-01-11T12:36:43;46.63;;;22.52;;
54831;SDS011;40730;53.068;6.572;2024-01-11T12:39:10;48.38;;;22.80;;
54831;SDS011;40730;53.068;6.572;2024-01-11T12:41:38;43.90;;;21.92;;
54831;SDS011;40730;53.068;6.572;2024-01-11T12:44:04;47.42;;;21.83;;
54831;SDS011;40730;53.068;6.572;2024-01-11T12:46:30;48.92;;;22.60;;
54831;SDS011;40730;53.068;6.572;2024-01-11T12:48:56;49.33;;;23.23;;
54831;SDS011;40730;53.068;6.572;2024-01-11T12:51:21;51.38;;;22.50;;
54831;SDS011;40730;53.068;6.572;2024-01-11T12:53:47;48.83;;;23.67;;
54831;SDS011;40730;53.068;6.572;2024-01-11T12:56:14;57.85;;;25.17;;
54831;SDS011;40730;53.068;6.572;2024-01-11T12:58:40;59.40;;;24.58;;
54831;SDS011;40730;53.068;6.572;2024-01-11T13:01:07;58.05;;;24.20;;
54831;SDS011;40730;53.068;6.572;2024-01-11T13:03:37;49.03;;;22.85;;
54831;SDS011;40730;53.068;6.572;2024-01-11T13:06:04;55.97;;;23.77;;
54831;SDS011;40730;53.068;6.572;2024-01-11T13:08:33;56.25;;;23.27;;
54831;SDS011;40730;53.068;6.572;2024-01-11T13:11:02;58.80;;;25.77;;
54831;SDS011;40730;53.068;6.572;2024-01-11T13:13:35;59.35;;;24.45;;
54831;SDS011;40730;53.068;6.572;2024-01-11T13:16:01;56.45;;;25.90;;
54831;SDS011;40730;53.068;6.572;2024-01-11T13:18:31;57.53;;;25.38;;
54831;SDS011;40730;53.068;6.572;2024-01-11T13:20:57;61.78;;;25.65;;
54831;SDS011;40730;53.068;6.572;2024-01-11T13:23:23;58.97;;;24.83;;
54831;SDS011;40730;53.068;6.572;2024-01-11T13:25:50;63.10;;;26.77;;
54831;SDS011;40730;53.068;6.572;2024-01-11T13:28:16;60.83;;;27.00;;
54831;SDS011;40730;53.068;6.572;2024-01-11T13:30:43;57.70;;;24.45;;
54831;SDS011;40730;53.068;6.572;2024-01-11T13:33:10;54.10;;;25.40;;
54831;SDS011;40730;53.068;6.572;2024-01-11T13:35:37;61.47;;;25.40;;
54831;SDS011;40730;53.068;6.572;2024-01-11T13:38:03;64.75;;;26.10;;
54831;SDS011;40730;53.068;6.572;2024-01-11T13:40:30;62.72;;;26.48;;
54831;SDS011;40730;53.068;6.572;2024-01-11T13:42:56;70.47;;;28.65;;
54831;SDS011;40730;53.068;6.572;2024-01-11T13:45:22;59.88;;;25.65;;
54831;SDS011;40730;53.068;6.572;2024-01-11T13:47:48;70.25;;;27.13;;
54831;SDS011;40730;53.068;6.572;2024-01-11T13:50:14;70.43;;;28.13;;
54831;SDS011;40730;53.068;6.572;2024-01-11T13:52:40;58.60;;;25.27;;
54831;SDS011;40730;53.068;6.572;2024-01-11T13:55:08;62.63;;;25.27;;
54831;SDS011;40730;53.068;6.572;2024-01-11T13:57:36;70.07;;;27.25;;
54831;SDS011;40730;53.068;6.572;2024-01-11T14:00:02;73.30;;;27.50;;
54831;SDS011;40730;53.068;6.572;2024-01-11T14:02:29;71.97;;;28.58;;
54831;SDS011;40730;53.068;6.572;2024-01-11T14:04:54;74.30;;;28.08;;
54831;SDS011;40730;53.068;6.572;2024-01-11T14:07:20;68.38;;;27.35;;
54831;SDS011;40730;53.068;6.572;2024-01-11T14:09:45;72.60;;;27.63;;
54831;SDS011;40730;53.068;6.572;2024-01-11T14:12:11;72.47;;;27.55;;
54831;SDS011;40730;53.068;6.572;2024-01-11T14:14:37;69.95;;;26.63;;
54831;SDS011;40730;53.068;6.572;2024-01-11T14:17:02;60.95;;;26.95;;
54831;SDS011;40730;53.068;6.572;2024-01-11T14:19:28;72.20;;;28.20;;
54831;SDS011;40730;53.068;6.572;2024-01-11T14:21:54;62.65;;;25.98;;